createdAt,value
2019-01-18T00:00:40.810Z,77.90
2019-01-18T00:03:09.268Z,78.70
2019-01-18T00:05:42.805Z,78.50
2019-01-18T00:08:11.164Z,78.80
2019-01-18T00:10:39.741Z,79.10
2019-01-18T00:13:08.156Z,78.60
2019-01-18T00:15:36.540Z,78.50
2019-01-18T00:18:05.085Z,78.30
2019-01-18T00:20:33.626Z,78.40
2019-01-18T00:23:02.094Z,78.30
2019-01-18T00:25:30.612Z,78.90
2019-01-18T00:27:58.992Z,78.70
2019-01-18T00:30:27.386Z,77.90
2019-01-18T00:32:55.902Z,78.40
2019-01-18T00:35:24.314Z,79.60
2019-01-18T00:37:52.782Z,79.40
2019-01-18T00:40:21.794Z,78.30
2019-01-18T00:42:50.204Z,78.00
2019-01-18T00:45:19.730Z,77.90
2019-01-18T00:47:48.209Z,77.80
2019-01-18T00:50:18.421Z,77.60
2019-01-18T00:52:46.854Z,76.90
2019-01-18T00:55:15.252Z,77.90
2019-01-18T00:57:43.720Z,78.60
2019-01-18T01:00:17.492Z,78.60
2019-01-18T01:02:45.898Z,79.00
2019-01-18T01:05:14.260Z,79.10
2019-01-18T01:07:42.620Z,79.30
2019-01-18T01:10:11.506Z,78.90
2019-01-18T01:12:39.904Z,78.10
2019-01-18T01:15:15.506Z,78.30
2019-01-18T01:17:43.943Z,78.20
2019-01-18T01:20:14.958Z,78.30
2019-01-18T01:22:43.356Z,78.30
2019-01-18T01:25:11.990Z,78.70
2019-01-18T01:27:40.575Z,78.20
2019-01-18T01:30:15.057Z,78.60
2019-01-18T01:32:43.435Z,78.60
2019-01-18T01:35:11.816Z,78.90
2019-01-18T01:37:40.236Z,78.40
2019-01-18T01:40:11.540Z,78.20
2019-01-18T01:42:39.926Z,78.50
2019-01-18T01:45:09.898Z,78.60
2019-01-18T01:47:38.382Z,78.20
2019-01-18T01:50:12.758Z,78.40
2019-01-18T01:52:41.272Z,79.00
2019-01-18T01:55:09.726Z,79.70
2019-01-18T01:57:38.128Z,80.80
2019-01-18T02:00:12.536Z,80.50
2019-01-18T02:02:40.998Z,80.20
2019-01-18T02:05:09.386Z,79.70
2019-01-18T02:07:37.823Z,79.60
2019-01-18T02:10:09.189Z,79.70
2019-01-18T02:12:37.652Z,80.30
2019-01-18T02:15:09.144Z,80.50
2019-01-18T02:17:37.552Z,80.20
2019-01-18T02:20:09.458Z,80.50
2019-01-18T02:22:37.866Z,81.20
2019-01-18T02:25:07.386Z,81.40
2019-01-18T02:27:35.772Z,80.90
2019-01-18T02:30:11.923Z,80.50
2019-01-18T02:50:08.271Z,80.80
2019-01-18T02:52:36.662Z,80.90
2019-01-18T02:55:06.883Z,81.50
2019-01-18T02:57:35.341Z,81.90
2019-01-18T03:00:06.954Z,82.00
2019-01-18T03:02:35.343Z,81.70
2019-01-18T03:05:05.420Z,81.40
2019-01-18T03:07:33.869Z,80.90
2019-01-18T03:10:02.889Z,80.40
2019-01-18T03:12:31.411Z,79.90
2019-01-18T03:14:59.777Z,79.70
2019-01-18T03:17:28.089Z,79.10
2019-01-18T03:19:56.525Z,78.40
2019-01-18T03:22:24.932Z,78.40
2019-01-18T03:24:53.310Z,79.20
2019-01-18T03:27:21.735Z,79.50
2019-01-18T03:29:50.091Z,79.80
2019-01-18T03:32:18.477Z,79.20
2019-01-18T03:34:46.890Z,77.70
2019-01-18T03:37:15.279Z,77.10
2019-01-18T03:39:43.635Z,77.50
2019-01-18T03:42:12.054Z,78.20
2019-01-18T03:44:40.466Z,78.00
2019-01-18T03:47:08.844Z,78.60
2019-01-18T03:49:37.336Z,79.50
2019-01-18T03:52:05.716Z,80.00
2019-01-18T03:54:34.083Z,80.50
2019-01-18T03:57:02.562Z,81.00
2019-01-18T03:59:31.084Z,81.40
2019-01-18T04:01:59.457Z,80.20
2019-01-18T04:04:27.940Z,80.70
2019-01-18T04:06:56.257Z,81.10
2019-01-18T04:09:24.660Z,81.90
2019-01-18T04:11:53.055Z,82.20
2019-01-18T04:14:21.451Z,81.30
2019-01-18T04:16:50.020Z,80.60
2019-01-18T04:19:18.386Z,80.70
2019-01-18T04:21:46.765Z,80.20
2019-01-18T04:24:15.225Z,80.30
2019-01-18T04:26:43.773Z,80.70
2019-01-18T04:29:12.167Z,81.00
2019-01-18T04:31:40.555Z,81.00
2019-01-18T04:34:09.009Z,81.60
2019-01-18T04:36:37.446Z,80.80
2019-01-18T04:39:06.383Z,81.10
2019-01-18T04:41:34.947Z,81.00
2019-01-18T04:44:03.435Z,81.10
2019-01-18T04:46:31.861Z,80.70
2019-01-18T04:49:01.701Z,79.40
2019-01-18T04:51:30.029Z,79.30
2019-01-18T04:53:58.461Z,79.40
2019-01-18T04:56:26.857Z,79.40
2019-01-18T04:58:55.239Z,79.70
2019-01-18T05:01:23.631Z,79.00
2019-01-18T05:03:52.238Z,79.30
2019-01-18T05:06:20.635Z,79.30
2019-01-18T05:08:48.994Z,80.20
2019-01-18T05:11:17.449Z,81.50
2019-01-18T05:13:45.869Z,81.90
2019-01-18T05:16:14.611Z,81.80
2019-01-18T05:18:43.040Z,81.30
2019-01-18T05:21:11.419Z,80.60
2019-01-18T05:23:39.802Z,79.80
2019-01-18T05:26:08.201Z,78.40
2019-01-18T05:28:36.581Z,78.00
2019-01-18T05:31:04.939Z,78.60
2019-01-18T05:33:33.345Z,79.00
2019-01-18T05:36:01.754Z,80.10
2019-01-18T05:38:30.174Z,80.90
2019-01-18T05:40:58.594Z,80.70
2019-01-18T05:43:27.009Z,80.30
2019-01-18T05:45:55.361Z,81.10
2019-01-18T05:48:23.783Z,79.90
2019-01-18T05:50:52.179Z,78.80
2019-01-18T05:53:20.822Z,78.90
2019-01-18T05:55:49.309Z,78.90
2019-01-18T05:58:17.740Z,79.50
2019-01-18T06:00:55.003Z,80.00
2019-01-18T06:03:17.931Z,80.10
2019-01-18T06:05:46.773Z,80.40
2019-01-18T06:08:15.151Z,80.20
2019-01-18T06:10:43.567Z,81.10
2019-01-18T06:13:11.945Z,81.00
2019-01-18T06:15:40.598Z,80.90
2019-01-18T06:18:09.129Z,80.30
2019-01-18T06:20:37.517Z,80.10
2019-01-18T06:23:06.071Z,80.40
2019-01-18T06:25:34.522Z,81.00
2019-01-18T06:28:02.900Z,81.50
2019-01-18T06:30:31.319Z,81.00
2019-01-18T06:33:21.213Z,80.50
2019-01-18T06:35:49.742Z,79.80
2019-01-18T06:38:18.177Z,79.50
2019-01-18T06:40:47.853Z,79.40
2019-01-18T06:43:16.301Z,79.80
2019-01-18T06:45:44.753Z,80.70
2019-01-18T06:48:14.811Z,81.00
2019-01-18T06:50:43.181Z,80.40
2019-01-18T06:53:11.568Z,80.40
2019-01-18T06:55:40.048Z,80.70
2019-01-18T06:58:08.423Z,80.70
2019-01-18T07:00:36.940Z,82.10
2019-01-18T07:03:05.437Z,81.80
2019-01-18T07:05:33.777Z,82.80
2019-01-18T07:08:02.271Z,83.30
2019-01-18T07:10:30.705Z,83.40
2019-01-18T07:12:59.637Z,82.50
2019-01-18T07:15:28.020Z,82.10
2019-01-18T07:17:56.770Z,82.00
2019-01-18T07:20:28.317Z,81.40
2019-01-18T07:22:56.773Z,80.20
2019-01-18T07:25:27.286Z,79.90
2019-01-18T07:27:55.655Z,81.00
2019-01-18T07:30:32.751Z,81.80
2019-01-18T07:33:01.158Z,81.50
2019-01-18T07:35:29.740Z,81.60
2019-01-18T07:37:58.358Z,82.80
2019-01-18T07:40:27.030Z,82.20
2019-01-18T07:42:55.813Z,81.70
2019-01-18T07:45:30.247Z,81.10
2019-01-18T07:48:01.515Z,79.60
2019-01-18T07:50:29.883Z,79.30
2019-01-18T07:52:58.308Z,80.40
2019-01-18T07:55:26.706Z,81.30
2019-01-18T07:57:55.070Z,81.60
2019-01-18T08:00:25.832Z,81.20
2019-01-18T08:02:54.227Z,80.60
2019-01-18T08:05:24.329Z,80.30
2019-01-18T08:07:52.738Z,79.20
2019-01-18T08:10:23.063Z,80.00
2019-01-18T08:12:51.626Z,80.40
2019-01-18T08:15:22.083Z,80.80
2019-01-18T08:17:50.491Z,80.90
2019-01-18T08:20:23.579Z,80.90
2019-01-18T08:22:52.227Z,81.20
2019-01-18T08:25:23.373Z,81.30
2019-01-18T08:27:51.802Z,81.10
2019-01-18T08:30:22.977Z,81.30
2019-01-18T08:32:51.554Z,81.20
2019-01-18T08:35:21.135Z,80.50
2019-01-18T08:37:49.530Z,81.00
2019-01-18T08:40:29.464Z,81.00
2019-01-18T08:42:57.867Z,81.00
2019-01-18T08:45:29.448Z,80.80
2019-01-18T08:47:57.815Z,80.60
2019-01-18T08:50:26.219Z,80.40
2019-01-18T08:52:54.587Z,80.10
2019-01-18T08:55:22.891Z,80.20
2019-01-18T08:57:54.052Z,80.30
2019-01-18T09:00:27.518Z,80.10
2019-01-18T09:02:56.003Z,79.90
2019-01-18T09:05:26.210Z,79.50
2019-01-18T09:07:55.344Z,79.00
2019-01-18T09:10:32.109Z,79.00
2019-01-18T09:13:00.494Z,79.50
2019-01-18T09:15:28.863Z,79.40
2019-01-18T09:17:57.318Z,79.80
2019-01-18T09:20:28.304Z,79.90
2019-01-18T09:22:56.751Z,80.00
2019-01-18T09:25:25.172Z,80.00
2019-01-18T09:27:53.499Z,79.60
2019-01-18T09:30:27.257Z,79.90
2019-01-18T09:32:55.671Z,78.60
2019-01-18T09:35:25.456Z,79.40
2019-01-18T09:37:55.158Z,79.60
2019-01-18T09:40:28.421Z,78.70
2019-01-18T09:42:56.810Z,78.80
2019-01-18T09:45:25.178Z,79.30
2019-01-18T09:47:53.589Z,79.50
2019-01-18T09:50:27.099Z,78.60
2019-01-18T09:52:55.616Z,78.30
2019-01-18T09:55:24.025Z,78.20
2019-01-18T09:57:52.418Z,79.00
2019-01-18T10:00:26.277Z,77.50
2019-01-18T10:02:54.918Z,77.20
2019-01-18T10:05:23.292Z,77.30
2019-01-18T10:07:51.682Z,77.70
2019-01-18T10:10:21.946Z,78.10
2019-01-18T10:12:50.310Z,78.10
2019-01-18T10:15:25.050Z,77.30
2019-01-18T10:17:53.447Z,77.10
2019-01-18T10:20:21.834Z,76.90
2019-01-18T10:22:50.614Z,78.20
2019-01-18T10:25:19.630Z,77.50
2019-01-18T10:27:49.868Z,77.80
2019-01-18T10:30:35.781Z,79.00
2019-01-18T10:35:48.871Z,80.00
2019-01-18T10:38:29.760Z,79.90
2019-01-18T10:40:58.555Z,79.30
2019-01-18T10:43:45.277Z,80.50
2019-01-18T10:46:15.219Z,80.70
2019-01-18T10:48:54.217Z,80.80
2019-01-18T10:51:22.941Z,79.60
2019-01-18T10:53:53.139Z,80.20
2019-01-18T10:56:21.722Z,80.60
2019-01-18T10:58:50.304Z,80.20
2019-01-18T11:01:20.416Z,79.80
2019-01-18T11:03:50.794Z,79.40
2019-01-18T11:06:19.553Z,80.10
2019-01-18T11:08:48.135Z,79.10
2019-01-18T11:11:16.795Z,79.20
2019-01-18T11:13:45.379Z,79.70
2019-01-18T11:16:17.245Z,78.70
2019-01-18T11:18:47.416Z,79.40
2019-01-18T11:21:25.542Z,79.50
2019-01-18T11:23:55.268Z,79.00
2019-01-18T11:26:23.919Z,78.90
2019-01-18T11:28:54.947Z,78.60
2019-01-18T11:31:23.520Z,77.50
2019-01-18T11:34:08.269Z,76.00
2019-01-18T11:36:36.793Z,77.10
2019-01-18T11:39:11.360Z,78.10
2019-01-18T11:41:42.447Z,79.60
2019-01-18T11:44:10.901Z,78.00
2019-01-18T11:46:42.260Z,78.20
2019-01-18T11:49:10.997Z,77.40
2019-01-18T11:51:40.525Z,77.30
2019-01-18T11:54:10.931Z,78.90
2019-01-18T11:56:51.577Z,79.30
2019-01-18T11:59:26.707Z,78.70
2019-01-18T12:02:04.894Z,77.70
2019-01-18T12:07:36.107Z,80.00
2019-01-18T12:10:08.039Z,80.10
2019-01-18T12:12:42.259Z,79.70
2019-01-18T12:15:12.809Z,79.10
2019-01-18T12:17:41.307Z,79.60
2019-01-18T12:20:16.141Z,78.20
2019-01-18T12:22:48.565Z,76.90
2019-01-18T12:25:21.534Z,77.60
2019-01-18T12:27:49.928Z,76.60
2019-01-18T12:30:21.879Z,76.70
2019-01-18T12:35:42.572Z,77.10
2019-01-18T12:38:14.205Z,75.50
2019-01-18T12:40:42.603Z,75.70
2019-01-18T12:43:11.230Z,75.10
2019-01-18T12:45:39.742Z,75.60
2019-01-18T12:48:10.052Z,75.30
2019-01-18T12:50:42.558Z,76.50
2019-01-18T12:53:12.460Z,75.40
2019-01-18T12:55:43.919Z,75.20
2019-01-18T12:58:12.286Z,75.30
2019-01-18T13:00:40.781Z,76.80
2019-01-18T13:03:09.251Z,76.20
2019-01-18T13:05:40.787Z,76.90
2019-01-18T13:08:09.336Z,77.90
2019-01-18T13:10:37.828Z,78.30
2019-01-18T13:13:06.508Z,78.40
2019-01-18T13:15:41.082Z,79.10
2019-01-18T13:18:09.464Z,76.90
2019-01-18T13:20:37.898Z,76.40
2019-01-18T13:23:15.646Z,77.10
2019-01-18T13:25:44.031Z,77.70
2019-01-18T13:28:12.419Z,77.90
2019-01-18T13:30:41.017Z,78.80
2019-01-18T13:33:09.967Z,78.80
2019-01-18T13:35:38.913Z,78.80
2019-01-18T13:38:07.709Z,78.60
2019-01-18T13:40:36.063Z,79.00
2019-01-18T13:43:04.696Z,77.60
2019-01-18T13:45:41.005Z,76.30
2019-01-18T13:48:09.462Z,76.80
2019-01-18T13:50:37.891Z,77.20
2019-01-18T13:53:06.310Z,77.60
2019-01-18T13:55:34.723Z,74.50
2019-01-18T13:58:03.223Z,75.00
2019-01-18T14:00:31.720Z,75.00
2019-01-18T14:03:00.254Z,75.00
2019-01-18T14:05:28.708Z,74.60
2019-01-18T14:07:57.179Z,76.20
2019-01-18T14:10:31.000Z,75.40
2019-01-18T14:12:59.618Z,76.10
2019-01-18T14:15:28.238Z,75.50
2019-01-18T14:17:56.673Z,77.30
2019-01-18T14:20:33.630Z,77.80
2019-01-18T14:23:02.080Z,76.00
2019-01-18T14:25:30.442Z,76.00
2019-01-18T14:27:58.893Z,76.60
2019-01-18T14:30:28.173Z,77.30
2019-01-18T14:32:56.562Z,78.30
2019-01-18T14:35:28.065Z,78.40
2019-01-18T14:37:56.466Z,77.50
2019-01-18T14:40:24.858Z,76.70
2019-01-18T14:42:54.564Z,76.50
2019-01-18T14:45:38.154Z,76.80
2019-01-18T14:48:08.196Z,77.10
2019-01-18T14:50:36.582Z,77.30
2019-01-18T14:53:07.712Z,77.50
2019-01-18T14:55:36.205Z,77.60
2019-01-18T14:58:07.030Z,78.20
2019-01-18T15:00:37.070Z,77.30
2019-01-18T15:03:12.576Z,77.20
2019-01-18T15:05:40.988Z,77.60
2019-01-18T15:08:09.426Z,77.90
2019-01-18T15:10:37.812Z,78.70
2019-01-18T15:13:11.700Z,79.00
2019-01-18T15:15:40.130Z,78.90
2019-01-18T15:18:08.650Z,79.30
2019-01-18T15:20:37.198Z,78.70
2019-01-18T15:23:06.335Z,78.50
2019-01-18T15:25:35.124Z,79.10
2019-01-18T15:28:09.020Z,80.20
2019-01-18T15:30:37.570Z,80.20
2019-01-18T15:33:09.448Z,79.70
2019-01-18T15:35:38.532Z,79.50
2019-01-18T15:38:10.022Z,79.30
2019-01-18T15:40:44.589Z,78.60
2019-01-18T15:44:15.078Z,79.10
2019-01-18T15:46:10.113Z,78.90
2019-01-18T15:52:41.018Z,78.20
2019-01-18T15:55:21.299Z,76.40
2019-01-18T16:00:50.029Z,76.40
2019-01-18T16:09:16.142Z,76.10
2019-01-18T16:12:02.609Z,76.30
2019-01-18T16:14:31.211Z,76.10
2019-01-18T16:17:01.502Z,75.50
2019-01-18T16:35:40.350Z,76.00
2019-01-18T16:38:13.502Z,76.00
2019-01-18T16:40:41.978Z,76.00
2019-01-18T16:43:38.723Z,76.40
2019-01-18T16:46:15.579Z,77.70
2019-01-18T16:49:14.617Z,77.60
2019-01-18T16:51:43.074Z,78.10
2019-01-18T16:54:11.559Z,78.40
2019-01-18T16:56:39.973Z,78.90
2019-01-18T16:59:16.573Z,79.00
2019-01-18T17:01:45.057Z,79.70
2019-01-18T17:04:13.986Z,80.00
2019-01-18T17:06:46.018Z,79.30
2019-01-18T17:09:15.410Z,79.30
2019-01-18T17:11:47.882Z,78.90
2019-01-18T17:14:16.532Z,78.80
2019-01-18T17:16:45.157Z,79.00
2019-01-18T17:19:13.708Z,79.50
2019-01-18T17:21:42.256Z,79.70
2019-01-18T17:24:10.757Z,80.30
2019-01-18T17:26:39.206Z,80.90
2019-01-18T17:29:07.670Z,80.40
2019-01-18T17:31:36.426Z,80.60
2019-01-18T17:37:00.206Z,80.80
2019-01-18T17:39:38.754Z,80.20
2019-01-18T17:42:30.839Z,80.90
2019-01-18T17:45:13.853Z,80.70
2019-01-18T17:48:03.674Z,80.00
2019-01-18T17:50:57.855Z,80.30
2019-01-18T17:53:43.700Z,80.20
2019-01-18T17:56:24.738Z,80.60
2019-01-18T17:59:30.021Z,80.40
2019-01-18T18:05:31.195Z,79.90
2019-01-18T18:08:33.449Z,79.90
2019-01-18T18:11:20.166Z,80.40
2019-01-18T18:14:05.172Z,81.10
2019-01-18T18:16:39.608Z,80.90
2019-01-18T18:19:26.114Z,80.60
2019-01-18T18:25:04.764Z,80.50
2019-01-18T18:27:42.613Z,79.90
2019-01-18T18:30:22.504Z,79.40
2019-01-18T18:33:08.959Z,80.00
2019-01-18T18:36:01.394Z,79.80
2019-01-18T18:38:33.259Z,80.50
2019-01-18T18:41:30.540Z,79.60
2019-01-18T18:44:05.292Z,79.70
2019-01-18T18:47:02.508Z,79.60
2019-01-18T18:49:34.393Z,79.60
2019-01-18T18:52:15.025Z,78.40
2019-01-18T18:54:46.825Z,79.10
2019-01-18T18:57:30.561Z,79.50
2019-01-18T19:00:20.303Z,78.60
2019-01-18T19:03:20.726Z,78.60
2019-01-18T19:06:12.162Z,79.10
2019-01-18T19:12:31.807Z,79.30
2019-01-18T19:15:36.487Z,79.00
2019-01-18T19:18:19.565Z,79.00
2019-01-18T19:21:22.654Z,79.40
2019-01-18T19:24:00.486Z,78.90
2019-01-18T19:26:43.827Z,78.90
2019-01-18T19:29:18.665Z,78.50
2019-01-18T19:34:56.454Z,80.10
2019-01-18T19:37:54.876Z,80.20
2019-01-18T19:40:28.800Z,79.40
2019-01-18T19:43:06.524Z,79.20
2019-01-18T19:45:59.150Z,79.70
2019-01-18T19:48:36.886Z,79.30
2019-01-18T19:54:39.846Z,79.10
2019-01-18T20:00:52.952Z,78.70
2019-01-18T20:03:41.630Z,78.70
2019-01-18T20:06:38.756Z,79.30
2019-01-18T20:13:26.515Z,80.20
2019-01-18T20:16:13.556Z,79.60
2019-01-18T20:19:12.512Z,79.00
2019-01-18T20:22:23.486Z,78.80
2019-01-18T20:37:47.523Z,78.70
2019-01-18T20:50:33.876Z,78.90
2019-01-18T20:53:08.267Z,78.90
2019-01-18T20:56:19.258Z,79.30
2019-01-18T21:02:13.874Z,79.40
2019-01-18T21:05:02.384Z,80.50
2019-01-18T21:07:43.415Z,80.60
2019-01-18T21:10:30.292Z,79.90
2019-01-18T21:13:41.208Z,80.70
2019-01-18T21:16:50.240Z,81.00
2019-01-18T21:46:31.226Z,80.20
2019-01-18T21:49:19.801Z,81.70
2019-01-18T21:52:11.624Z,81.60
2019-01-18T21:54:45.955Z,81.90
2019-01-18T21:57:34.189Z,81.50
2019-01-18T22:00:30.118Z,80.90
2019-01-18T22:03:13.289Z,81.00
2019-01-18T22:05:50.339Z,81.60
2019-01-18T22:08:41.505Z,81.50
2019-01-18T22:11:24.847Z,82.70
2019-01-18T22:17:06.479Z,83.00
2019-01-18T22:19:38.165Z,82.80
2019-01-18T22:22:18.879Z,83.00
2019-01-18T22:24:50.644Z,82.90
2019-01-18T22:27:25.017Z,82.20
2019-01-18T22:29:59.403Z,82.50
2019-01-18T22:32:49.321Z,82.80
2019-01-18T22:35:27.783Z,83.20
2019-01-18T22:38:18.596Z,82.80
2019-01-18T22:41:20.985Z,82.40
2019-01-18T22:44:32.199Z,82.10
2019-01-18T22:47:09.673Z,81.40
2019-01-18T22:52:52.249Z,82.00
2019-01-18T22:55:29.807Z,81.80
2019-01-18T22:58:16.841Z,81.90
2019-01-18T23:00:58.355Z,81.70
2019-01-18T23:03:49.179Z,82.30
2019-01-18T23:06:46.873Z,82.20
2019-01-18T23:09:52.075Z,82.00
2019-01-18T23:30:10.391Z,81.30
2019-01-18T23:32:45.483Z,82.10
2019-01-18T23:35:33.561Z,82.50
2019-01-18T23:38:35.674Z,82.50
2019-01-18T23:41:35.663Z,82.60
2019-01-18T23:44:13.003Z,82.20
2019-01-18T23:46:54.213Z,81.60
2019-01-18T23:49:38.091Z,82.00
2019-01-18T23:52:10.003Z,82.70
2019-01-18T23:55:05.725Z,82.60
2019-01-18T23:57:42.927Z,82.60
